createdAt,value
2017-10-18T00:01:38.966Z,14.70
2017-10-18T00:04:06.424Z,14.70
2017-10-18T00:06:33.927Z,14.80
2017-10-18T00:09:01.378Z,14.70
2017-10-18T00:11:28.834Z,14.70
2017-10-18T00:13:56.316Z,14.80
2017-10-18T00:16:23.773Z,14.80
2017-10-18T00:18:51.291Z,14.80
2017-10-18T00:21:19.536Z,14.80
2017-10-18T00:23:46.993Z,14.80
2017-10-18T00:26:14.452Z,14.70
2017-10-18T00:28:41.934Z,14.70
2017-10-18T00:31:10.189Z,14.70
2017-10-18T00:33:37.663Z,14.70
2017-10-18T00:36:05.109Z,14.70
2017-10-18T00:38:32.601Z,14.60
2017-10-18T00:41:00.841Z,14.60
2017-10-18T00:43:28.300Z,14.60
2017-10-18T00:45:55.761Z,14.60
2017-10-18T00:48:23.241Z,14.60
2017-10-18T00:50:51.494Z,14.70
2017-10-18T00:53:18.962Z,14.70
2017-10-18T00:55:46.991Z,14.70
2017-10-18T00:58:14.477Z,14.70
2017-10-18T01:00:41.933Z,14.70
2017-10-18T01:03:09.393Z,14.80
2017-10-18T01:05:36.881Z,14.80
2017-10-18T01:08:05.110Z,14.80
2017-10-18T01:10:32.610Z,14.80
2017-10-18T01:13:00.858Z,14.80
2017-10-18T01:15:28.308Z,14.80
2017-10-18T01:17:55.801Z,14.90
2017-10-18T01:20:23.254Z,14.80
2017-10-18T01:22:50.713Z,14.80
2017-10-18T01:25:18.193Z,14.80
2017-10-18T01:27:46.417Z,14.90
2017-10-18T01:30:13.900Z,14.90
2017-10-18T01:32:41.352Z,14.90
2017-10-18T01:35:08.838Z,14.90
2017-10-18T01:37:37.080Z,14.90
2017-10-18T01:40:04.561Z,14.90
2017-10-18T01:42:32.815Z,14.90
2017-10-18T01:45:00.257Z,14.80
2017-10-18T01:47:27.707Z,14.80
2017-10-18T01:49:55.181Z,14.80
2017-10-18T01:52:22.637Z,14.80
2017-10-18T01:54:50.111Z,14.80
2017-10-18T01:57:19.002Z,14.80
2017-10-18T01:59:46.486Z,14.80
2017-10-18T02:02:14.718Z,14.80
2017-10-18T02:04:42.173Z,14.80
2017-10-18T02:07:09.654Z,14.80
2017-10-18T02:09:37.126Z,14.80
2017-10-18T02:12:05.385Z,14.80
2017-10-18T02:14:32.841Z,14.80
2017-10-18T02:17:00.305Z,14.80
2017-10-18T02:19:27.787Z,14.80
2017-10-18T02:21:56.002Z,14.80
2017-10-18T02:24:23.477Z,14.80
2017-10-18T02:26:50.961Z,14.80
2017-10-18T02:29:19.626Z,14.90
2017-10-18T02:31:47.123Z,14.90
2017-10-18T02:34:14.598Z,14.90
2017-10-18T02:36:42.058Z,14.90
2017-10-18T02:39:09.543Z,14.90
2017-10-18T02:41:37.021Z,15.00
2017-10-18T02:44:04.474Z,15.00
2017-10-18T02:46:31.959Z,15.00
2017-10-18T02:48:59.435Z,15.00
2017-10-18T02:51:26.892Z,15.00
2017-10-18T02:53:55.141Z,15.10
2017-10-18T02:56:22.606Z,15.10
2017-10-18T02:58:50.075Z,15.00
2017-10-18T03:01:17.559Z,15.00
2017-10-18T03:03:45.018Z,15.00
2017-10-18T03:06:12.493Z,15.00
2017-10-18T03:08:40.006Z,15.00
2017-10-18T03:11:07.551Z,15.00
2017-10-18T03:13:35.039Z,15.00
2017-10-18T03:16:03.283Z,15.00
2017-10-18T03:18:30.757Z,15.00
2017-10-18T03:20:58.242Z,15.00
2017-10-18T03:23:25.728Z,15.00
2017-10-18T03:25:53.229Z,15.00
2017-10-18T03:28:20.711Z,15.00
2017-10-18T03:30:48.962Z,15.00
2017-10-18T03:33:16.442Z,15.00
2017-10-18T03:35:44.685Z,15.00
2017-10-18T03:38:12.201Z,15.00
2017-10-18T03:40:39.659Z,15.00
2017-10-18T03:43:07.150Z,15.00
2017-10-18T03:45:34.613Z,15.00
2017-10-18T03:48:02.348Z,14.90
2017-10-18T03:50:29.858Z,14.90
2017-10-18T03:52:57.349Z,14.80
2017-10-18T03:55:25.566Z,14.70
2017-10-18T03:57:53.026Z,14.70
2017-10-18T04:00:21.070Z,14.60
2017-10-18T04:02:48.840Z,14.50
2017-10-18T04:05:16.314Z,14.40
2017-10-18T04:07:43.794Z,14.40
2017-10-18T04:10:11.417Z,14.30
2017-10-18T04:12:38.876Z,14.30
2017-10-18T04:15:06.334Z,14.30
2017-10-18T04:17:33.801Z,14.20
2017-10-18T04:20:01.244Z,14.20
2017-10-18T04:22:28.711Z,14.20
2017-10-18T04:24:56.196Z,14.10
2017-10-18T04:27:23.649Z,14.10
2017-10-18T04:29:52.085Z,14.00
2017-10-18T04:32:19.547Z,14.00
2017-10-18T04:34:47.033Z,14.00
2017-10-18T04:37:14.501Z,14.00
2017-10-18T04:39:41.961Z,14.00
2017-10-18T04:42:09.441Z,13.90
2017-10-18T04:44:36.899Z,13.90
2017-10-18T04:47:04.372Z,13.90
2017-10-18T04:49:31.854Z,13.90
2017-10-18T04:51:59.314Z,13.80
2017-10-18T04:54:26.802Z,13.80
2017-10-18T04:56:54.285Z,13.70
2017-10-18T04:59:22.782Z,13.70
2017-10-18T05:01:51.928Z,13.70
2017-10-18T05:04:19.413Z,13.70
2017-10-18T05:06:46.870Z,13.70
2017-10-18T05:09:14.369Z,13.60
2017-10-18T05:11:42.605Z,13.60
2017-10-18T05:14:10.073Z,13.60
2017-10-18T05:16:37.570Z,13.60
2017-10-18T05:19:05.234Z,13.60
2017-10-18T05:21:32.970Z,13.60
2017-10-18T05:24:00.780Z,13.60
2017-10-18T05:26:28.482Z,13.60
2017-10-18T05:28:56.982Z,13.50
2017-10-18T05:31:24.504Z,13.50
2017-10-18T05:33:52.931Z,13.50
2017-10-18T05:36:20.838Z,13.50
2017-10-18T05:38:48.293Z,13.50
2017-10-18T05:41:16.589Z,13.50
2017-10-18T05:43:44.317Z,13.50
2017-10-18T05:46:11.897Z,13.40
2017-10-18T05:48:39.533Z,13.40
2017-10-18T05:51:07.775Z,13.40
2017-10-18T05:53:35.269Z,13.40
2017-10-18T05:56:02.721Z,13.40
2017-10-18T05:58:30.977Z,13.30
2017-10-18T06:00:58.457Z,13.30
2017-10-18T06:03:26.709Z,13.40
2017-10-18T06:05:57.143Z,13.30
2017-10-18T06:08:24.593Z,13.40
2017-10-18T06:10:52.077Z,13.40
2017-10-18T06:13:19.534Z,13.40
2017-10-18T06:15:47.024Z,13.40
2017-10-18T06:18:14.487Z,13.40
2017-10-18T06:20:42.001Z,13.40
2017-10-18T06:23:10.265Z,13.30
2017-10-18T06:25:37.718Z,13.40
2017-10-18T06:28:05.173Z,13.40
2017-10-18T06:30:32.655Z,13.40
2017-10-18T06:33:00.865Z,13.40
2017-10-18T06:35:28.345Z,13.40
2017-10-18T06:37:55.805Z,13.40
2017-10-18T06:40:24.702Z,13.40
2017-10-18T06:42:52.157Z,13.40
2017-10-18T06:45:19.654Z,13.40
2017-10-18T06:47:47.872Z,13.40
2017-10-18T06:50:15.418Z,13.40
2017-10-18T06:52:42.891Z,13.40
2017-10-18T06:55:10.369Z,13.40
2017-10-18T06:57:37.846Z,13.40
2017-10-18T07:00:05.310Z,13.50
2017-10-18T07:02:32.786Z,13.40
2017-10-18T07:05:00.254Z,13.50
2017-10-18T07:07:28.501Z,13.60
2017-10-18T07:09:55.968Z,13.60
2017-10-18T07:12:24.380Z,13.70
2017-10-18T07:14:51.844Z,13.70
2017-10-18T07:17:19.310Z,13.80
2017-10-18T07:19:46.808Z,13.80
2017-10-18T07:22:14.290Z,13.90
2017-10-18T07:24:41.779Z,14.00
2017-10-18T07:27:09.238Z,14.10
2017-10-18T07:29:36.711Z,14.20
2017-10-18T07:32:04.160Z,14.30
2017-10-18T07:34:31.644Z,14.30
2017-10-18T07:36:59.109Z,14.40
2017-10-18T07:39:26.614Z,14.50
2017-10-18T07:41:55.022Z,14.60
2017-10-18T07:44:22.493Z,14.60
2017-10-18T07:46:49.972Z,14.70
2017-10-18T07:49:17.469Z,14.80
2017-10-18T07:51:44.945Z,14.90
2017-10-18T07:54:12.417Z,14.90
2017-10-18T07:56:39.885Z,15.00
2017-10-18T07:59:07.374Z,15.10
2017-10-18T08:01:35.603Z,15.30
2017-10-18T08:04:03.073Z,15.30
2017-10-18T08:06:30.550Z,15.30
2017-10-18T08:08:58.018Z,15.40
2017-10-18T08:11:26.393Z,15.60
2017-10-18T08:13:53.861Z,15.50
2017-10-18T08:16:21.322Z,15.60
2017-10-18T08:18:49.635Z,15.70
2017-10-18T08:21:17.127Z,15.70
2017-10-18T08:23:44.594Z,15.80
2017-10-18T08:26:12.094Z,15.80
2017-10-18T08:28:39.551Z,15.90
2017-10-18T08:31:07.018Z,15.90
2017-10-18T08:33:34.501Z,15.90
2017-10-18T08:36:01.981Z,16.00
2017-10-18T08:38:29.471Z,16.10
2017-10-18T08:40:57.707Z,16.10
2017-10-18T08:43:25.193Z,16.10
2017-10-18T08:45:52.662Z,16.20
2017-10-18T08:48:20.911Z,16.30
2017-10-18T08:50:48.374Z,16.30
2017-10-18T08:53:15.862Z,16.40
2017-10-18T08:55:44.145Z,16.40
2017-10-18T08:58:12.374Z,16.50
2017-10-18T09:00:39.838Z,16.50
2017-10-18T09:03:07.323Z,16.60
2017-10-18T09:05:34.813Z,16.60
2017-10-18T09:08:02.301Z,16.60
2017-10-18T09:10:29.777Z,16.70
2017-10-18T09:12:57.247Z,16.70
2017-10-18T09:15:24.733Z,16.80
2017-10-18T09:17:52.973Z,16.90
2017-10-18T09:20:20.450Z,16.90
2017-10-18T09:22:47.934Z,17.00
2017-10-18T09:25:15.394Z,17.00
2017-10-18T09:27:42.874Z,17.00
2017-10-18T09:30:10.359Z,17.10
2017-10-18T09:32:37.818Z,17.20
2017-10-18T09:35:05.293Z,17.30
2017-10-18T09:37:32.753Z,17.30
2017-10-18T09:40:00.254Z,17.40
2017-10-18T09:42:27.729Z,17.40
2017-10-18T09:44:55.185Z,17.40
2017-10-18T09:47:22.678Z,17.50
2017-10-18T09:49:50.141Z,17.40
2017-10-18T09:52:17.599Z,17.40
2017-10-18T09:54:45.086Z,17.50
2017-10-18T09:57:13.338Z,17.60
2017-10-18T09:59:40.793Z,17.60
2017-10-18T10:02:08.283Z,17.60
2017-10-18T10:04:35.738Z,17.60
2017-10-18T10:07:03.234Z,17.60
2017-10-18T10:09:30.749Z,17.60
2017-10-18T10:11:59.003Z,17.60
2017-10-18T10:14:26.485Z,17.60
2017-10-18T10:16:54.732Z,17.60
2017-10-18T10:19:22.193Z,17.60
2017-10-18T10:21:49.682Z,17.70
2017-10-18T10:24:17.932Z,17.80
2017-10-18T10:26:45.413Z,17.80
2017-10-18T10:29:13.657Z,18.00
2017-10-18T10:31:41.173Z,18.00
2017-10-18T10:34:08.649Z,18.20
2017-10-18T10:36:36.154Z,18.30
2017-10-18T10:39:04.394Z,18.60
2017-10-18T10:41:31.890Z,18.60
2017-10-18T10:43:59.352Z,18.80
2017-10-18T10:46:26.813Z,19.00
2017-10-18T10:48:54.327Z,19.10
2017-10-18T10:51:21.797Z,19.00
2017-10-18T10:53:49.261Z,19.00
2017-10-18T10:56:16.770Z,18.90
2017-10-18T10:58:44.249Z,18.80
2017-10-18T11:01:11.710Z,18.60
2017-10-18T11:03:39.197Z,18.50
2017-10-18T11:06:06.653Z,18.70
2017-10-18T11:08:34.115Z,18.90
2017-10-18T11:11:01.608Z,19.00
2017-10-18T11:13:29.072Z,19.10
2017-10-18T11:15:56.525Z,19.10
2017-10-18T11:18:24.002Z,19.10
2017-10-18T11:20:51.486Z,19.20
2017-10-18T11:23:18.946Z,19.20
2017-10-18T11:25:46.418Z,19.30
2017-10-18T11:28:13.873Z,19.40
2017-10-18T11:30:41.369Z,19.40
2017-10-18T11:33:09.618Z,19.40
2017-10-18T11:35:37.103Z,19.30
2017-10-18T11:38:05.354Z,19.40
2017-10-18T11:40:32.816Z,19.40
2017-10-18T11:43:00.280Z,19.40
2017-10-18T11:45:28.550Z,19.40
2017-10-18T11:47:56.015Z,19.40
2017-10-18T11:50:24.238Z,19.40
2017-10-18T11:52:51.701Z,19.40
2017-10-18T11:55:19.225Z,19.50
2017-10-18T11:57:47.474Z,19.60
2017-10-18T12:00:14.966Z,19.60
2017-10-18T12:02:42.480Z,19.60
2017-10-18T12:05:09.958Z,19.70
2017-10-18T12:07:37.471Z,19.80
2017-10-18T12:10:04.950Z,19.80
2017-10-18T12:12:32.434Z,19.80
2017-10-18T12:15:01.070Z,20.00
2017-10-18T12:17:28.525Z,20.00
2017-10-18T12:19:56.034Z,20.10
2017-10-18T12:22:23.490Z,20.20
2017-10-18T12:24:50.945Z,20.30
2017-10-18T12:27:18.434Z,20.40
2017-10-18T12:29:46.691Z,20.40
2017-10-18T12:32:14.942Z,20.50
2017-10-18T12:34:42.409Z,20.50
2017-10-18T12:37:09.861Z,20.50
2017-10-18T12:39:37.347Z,20.50
2017-10-18T12:42:05.578Z,20.60
2017-10-18T12:44:33.062Z,20.60
2017-10-18T12:47:00.869Z,20.70
2017-10-18T12:49:28.341Z,20.80
2017-10-18T12:51:55.825Z,20.90
2017-10-18T12:54:23.283Z,20.90
2017-10-18T12:56:50.762Z,20.90
2017-10-18T12:59:18.275Z,21.00
2017-10-18T13:01:45.745Z,21.00
2017-10-18T13:04:13.238Z,21.10
2017-10-18T13:06:40.697Z,21.20
2017-10-18T13:09:08.155Z,21.30
2017-10-18T13:11:35.648Z,21.40
2017-10-18T13:14:03.105Z,21.50
2017-10-18T13:16:31.522Z,21.60
2017-10-18T13:18:58.978Z,21.60
2017-10-18T13:21:26.466Z,21.90
2017-10-18T13:23:54.064Z,22.60
2017-10-18T13:26:21.532Z,23.70
2017-10-18T13:28:49.014Z,24.80
2017-10-18T13:31:16.542Z,26.00
2017-10-18T13:33:44.019Z,27.10
2017-10-18T13:36:11.489Z,28.20
2017-10-18T13:38:38.974Z,29.30
2017-10-18T13:41:06.434Z,30.50
2017-10-18T13:43:33.882Z,31.40
2017-10-18T13:46:02.808Z,32.70
2017-10-18T13:48:31.030Z,33.30
2017-10-18T13:50:58.520Z,33.30
2017-10-18T13:53:26.782Z,34.10
2017-10-18T13:55:54.236Z,34.00
2017-10-18T13:58:21.734Z,34.40
2017-10-18T14:00:49.966Z,34.70
2017-10-18T14:03:17.444Z,34.60
2017-10-18T14:05:44.941Z,34.80
2017-10-18T14:08:12.448Z,35.00
2017-10-18T14:10:39.914Z,35.10
2017-10-18T14:13:07.393Z,35.30
2017-10-18T14:15:34.882Z,35.60
2017-10-18T14:18:02.948Z,35.90
2017-10-18T14:20:30.683Z,35.60
2017-10-18T14:22:58.281Z,35.10
2017-10-18T14:25:26.050Z,34.70
2017-10-18T14:27:53.626Z,34.40
2017-10-18T14:30:21.122Z,34.50
2017-10-18T14:32:48.584Z,34.80
2017-10-18T14:35:16.201Z,35.00
2017-10-18T14:37:43.701Z,34.90
2017-10-18T14:40:11.166Z,34.70
2017-10-18T14:42:38.646Z,34.50
2017-10-18T14:45:06.882Z,34.40
2017-10-18T14:47:34.369Z,34.40
2017-10-18T14:50:03.535Z,34.40
2017-10-18T14:52:31.135Z,34.40
2017-10-18T14:54:58.854Z,33.70
2017-10-18T14:57:26.696Z,32.60
2017-10-18T14:59:54.204Z,31.50
2017-10-18T15:02:22.779Z,29.80
2017-10-18T15:04:50.453Z,29.70
2017-10-18T15:07:18.765Z,28.50
2017-10-18T15:09:46.284Z,28.50
2017-10-18T15:12:13.810Z,27.90
2017-10-18T15:14:41.655Z,27.50
2017-10-18T15:17:09.227Z,27.40
2017-10-18T15:19:37.039Z,27.30
2017-10-18T15:22:04.701Z,27.10
2017-10-18T15:24:32.473Z,26.70
2017-10-18T15:27:00.009Z,26.30
2017-10-18T15:29:27.680Z,26.00
2017-10-18T15:31:55.216Z,25.70
2017-10-18T15:34:22.705Z,25.60
2017-10-18T15:36:51.293Z,25.30
2017-10-18T15:39:20.039Z,24.70
2017-10-18T15:41:47.764Z,24.60
2017-10-18T15:44:15.389Z,24.40
2017-10-18T15:46:43.807Z,23.70
2017-10-18T15:49:11.553Z,23.70
2017-10-18T15:51:39.219Z,23.50
2017-10-18T15:54:06.700Z,23.40
2017-10-18T15:56:36.598Z,23.20
2017-10-18T15:59:06.373Z,23.20
2017-10-18T16:01:35.680Z,23.00
2017-10-18T16:04:03.186Z,22.80
2017-10-18T16:06:30.694Z,22.60
2017-10-18T16:08:58.301Z,22.30
2017-10-18T16:11:26.595Z,21.90
2017-10-18T16:13:54.252Z,21.90
2017-10-18T16:16:21.914Z,21.70
2017-10-18T16:18:49.576Z,21.50
2017-10-18T16:21:17.237Z,21.30
2017-10-18T16:23:44.907Z,21.10
2017-10-18T16:26:12.412Z,21.00
2017-10-18T16:28:39.868Z,20.80
2017-10-18T16:31:07.328Z,20.70
2017-10-18T16:33:35.977Z,20.30
2017-10-18T16:36:03.859Z,20.30
2017-10-18T16:38:31.552Z,20.20
2017-10-18T16:40:59.976Z,20.00
2017-10-18T16:43:27.500Z,19.90
2017-10-18T16:45:56.385Z,19.70
2017-10-18T16:48:24.006Z,19.60
2017-10-18T16:50:52.212Z,19.40
2017-10-18T16:53:20.072Z,19.40
2017-10-18T16:55:48.333Z,19.20
2017-10-18T16:58:15.999Z,19.20
2017-10-18T17:00:43.635Z,19.10
2017-10-18T17:03:11.187Z,19.00
2017-10-18T17:05:39.536Z,18.90
2017-10-18T17:08:07.150Z,18.90
2017-10-18T17:10:35.656Z,18.90
2017-10-18T17:13:03.333Z,18.90
2017-10-18T17:15:30.863Z,18.90
2017-10-18T17:17:58.684Z,18.90
2017-10-18T17:20:26.139Z,18.80
2017-10-18T17:22:53.649Z,18.70
2017-10-18T17:25:21.112Z,18.60
2017-10-18T17:27:48.566Z,18.60
2017-10-18T17:30:16.150Z,18.60
2017-10-18T17:32:43.605Z,18.50
2017-10-18T17:35:11.076Z,18.50
2017-10-18T17:37:38.558Z,18.50
2017-10-18T17:40:06.025Z,18.40
2017-10-18T17:42:33.525Z,18.40
2017-10-18T17:45:00.985Z,18.30
2017-10-18T17:47:28.446Z,18.30
2017-10-18T17:49:55.966Z,18.20
2017-10-18T17:52:23.439Z,18.20
2017-10-18T17:54:50.894Z,18.10
2017-10-18T17:57:18.391Z,18.10
2017-10-18T17:59:45.852Z,18.00
2017-10-18T18:02:13.333Z,18.00
2017-10-18T18:04:40.822Z,17.90
2017-10-18T18:07:08.300Z,17.90
2017-10-18T18:09:36.274Z,17.80
2017-10-18T18:12:03.751Z,17.80
2017-10-18T18:14:31.212Z,17.80
2017-10-18T18:16:58.701Z,17.70
2017-10-18T18:19:26.153Z,17.70
2017-10-18T18:21:53.633Z,17.70
2017-10-18T18:24:21.114Z,17.70
2017-10-18T18:26:48.584Z,17.70
2017-10-18T18:29:16.118Z,17.70
2017-10-18T18:31:44.328Z,17.60
2017-10-18T18:34:11.817Z,17.60
2017-10-18T18:36:39.269Z,17.60
2017-10-18T18:39:06.727Z,17.60
2017-10-18T18:41:34.196Z,17.60
2017-10-18T18:44:01.654Z,17.50
2017-10-18T18:46:29.123Z,17.50
2017-10-18T18:48:57.376Z,17.40
2017-10-18T18:51:24.871Z,17.40
2017-10-18T18:53:53.089Z,17.40
2017-10-18T18:56:20.561Z,17.40
2017-10-18T18:58:48.073Z,17.40
2017-10-18T19:01:15.544Z,17.30
2017-10-18T19:03:43.115Z,17.30
2017-10-18T19:06:10.713Z,17.30
2017-10-18T19:08:38.223Z,17.30
2017-10-18T19:11:05.674Z,17.30
2017-10-18T19:13:33.124Z,17.30
2017-10-18T19:16:00.806Z,17.30
2017-10-18T19:18:28.270Z,17.20
2017-10-18T19:20:55.725Z,17.20
2017-10-18T19:23:23.526Z,17.20
2017-10-18T19:25:50.973Z,17.20
2017-10-18T19:28:18.443Z,17.20
2017-10-18T19:30:46.073Z,17.20
2017-10-18T19:33:13.574Z,17.20
2017-10-18T19:35:41.507Z,17.20
2017-10-18T19:38:08.977Z,17.20
2017-10-18T19:40:38.164Z,17.20
2017-10-18T19:43:05.645Z,17.20
2017-10-18T19:45:33.128Z,17.20
2017-10-18T19:48:01.360Z,17.20
2017-10-18T19:50:28.905Z,17.20
2017-10-18T19:52:56.381Z,17.20
2017-10-18T19:55:24.002Z,17.20
2017-10-18T19:57:52.492Z,17.10
2017-10-18T20:00:19.968Z,17.10
2017-10-18T20:02:47.465Z,17.10
2017-10-18T20:05:14.913Z,17.10
2017-10-18T20:07:42.545Z,17.10
2017-10-18T20:10:10.008Z,17.10
2017-10-18T20:12:37.934Z,17.00
2017-10-18T20:15:06.182Z,17.00
2017-10-18T20:17:33.633Z,17.00
2017-10-18T20:20:01.091Z,17.00
2017-10-18T20:22:28.581Z,17.00
2017-10-18T20:24:56.805Z,16.90
2017-10-18T20:27:24.261Z,16.90
2017-10-18T20:29:52.493Z,16.90
2017-10-18T20:32:20.733Z,16.90
2017-10-18T20:34:48.219Z,16.90
2017-10-18T20:37:15.726Z,16.90
2017-10-18T20:39:43.189Z,16.90
2017-10-18T20:42:10.645Z,16.90
2017-10-18T20:44:38.396Z,16.90
2017-10-18T20:47:05.891Z,16.80
2017-10-18T20:49:33.385Z,16.80
2017-10-18T20:52:01.615Z,16.80
2017-10-18T20:54:29.134Z,16.80
2017-10-18T20:56:57.361Z,16.80
2017-10-18T20:59:24.819Z,16.80
2017-10-18T21:01:52.306Z,16.80
2017-10-18T21:04:19.765Z,16.80
2017-10-18T21:06:48.014Z,16.70
2017-10-18T21:09:15.521Z,16.70
2017-10-18T21:11:43.753Z,16.70
2017-10-18T21:14:11.233Z,16.70
2017-10-18T21:16:38.826Z,16.70
2017-10-18T21:19:06.378Z,16.70
2017-10-18T21:21:33.870Z,16.70
2017-10-18T21:24:01.335Z,16.70
2017-10-18T21:26:28.802Z,16.70
2017-10-18T21:28:56.277Z,16.70
2017-10-18T21:31:23.781Z,16.70
2017-10-18T21:33:51.295Z,16.70
2017-10-18T21:36:18.759Z,16.70
2017-10-18T21:38:46.232Z,16.70
2017-10-18T21:41:14.485Z,16.70
2017-10-18T21:43:41.970Z,16.60
2017-10-18T21:46:10.211Z,16.60
2017-10-18T21:48:37.713Z,16.60
2017-10-18T21:51:05.970Z,16.60
2017-10-18T21:53:33.450Z,16.50
2017-10-18T21:56:01.677Z,16.50
2017-10-18T21:58:29.177Z,16.50
2017-10-18T22:00:57.400Z,16.50
2017-10-18T22:03:24.898Z,16.50
2017-10-18T22:05:53.129Z,16.50
2017-10-18T22:08:20.596Z,16.50
2017-10-18T22:10:48.101Z,16.50
2017-10-18T22:13:16.329Z,16.50
2017-10-18T22:15:43.796Z,16.50
2017-10-18T22:18:11.286Z,16.50
2017-10-18T22:20:38.781Z,16.50
2017-10-18T22:23:06.247Z,16.50
2017-10-18T22:25:33.752Z,16.50
2017-10-18T22:28:01.209Z,16.50
2017-10-18T22:30:28.719Z,16.50
2017-10-18T22:32:56.313Z,16.50
2017-10-18T22:35:23.768Z,16.50
2017-10-18T22:37:51.240Z,16.50
2017-10-18T22:40:18.731Z,16.50
2017-10-18T22:42:46.953Z,16.50
2017-10-18T22:45:14.439Z,16.40
2017-10-18T22:47:41.910Z,16.40
2017-10-18T22:50:10.181Z,16.40
2017-10-18T22:52:37.658Z,16.50
2017-10-18T22:55:05.145Z,16.40
2017-10-18T22:57:32.654Z,16.40
2017-10-18T23:00:00.905Z,16.40
2017-10-18T23:02:28.369Z,16.40
2017-10-18T23:04:55.845Z,16.40
2017-10-18T23:07:23.331Z,16.40
2017-10-18T23:09:51.627Z,16.40
2017-10-18T23:12:19.073Z,16.40
2017-10-18T23:14:46.529Z,16.40
2017-10-18T23:17:14.014Z,16.40
2017-10-18T23:19:41.469Z,16.40
2017-10-18T23:22:08.921Z,16.40
2017-10-18T23:24:36.478Z,16.40
2017-10-18T23:27:03.931Z,16.40
2017-10-18T23:29:31.411Z,16.30
2017-10-18T23:31:58.899Z,16.30
2017-10-18T23:34:26.383Z,16.30
2017-10-18T23:36:54.669Z,16.30
2017-10-18T23:39:22.163Z,16.30
2017-10-18T23:41:49.645Z,16.30
2017-10-18T23:44:17.200Z,16.20
2017-10-18T23:46:44.665Z,16.20
2017-10-18T23:49:12.146Z,16.20
2017-10-18T23:51:41.309Z,16.10
2017-10-18T23:54:08.782Z,16.10
2017-10-18T23:56:36.242Z,16.10
2017-10-18T23:59:03.734Z,16.10
